Triathlon Cayeux sur Mer 2018

Epreuve sélectionnée:


M - Résultats Scratch

Filtre:

Partants Général Top 5



Recherche:

N° dossard
Nom
Club
M - Classement arrivée
Clt Athlète Nat. Club Temps Sexe Cat CaP1 #1 Vélo Vélo Cum #2 CaP2 CaP1 T1 CaP1 T2 Velo T1 Velo T2 Après CaP1 T1 Après #1 Après Vélo T1 Après #2
1 129 CALLEBOUT Kevin GRAVELINES TRIATHLON 00:16:20 M (1e) Senior (1e) 00:33:32 (1e) 00:00:22 (1e) 00:58:38 (3e) 01:32:30 (1e) 00:00:01 (1e) 00:17:59 (2e) 00:16:20 (1e) 00:17:12 (1e) 00:29:29 (4e) 00:29:09 (3e) 00:16:20 (1e) 00:33:53 (1e) 01:03:22 (1e) 01:32:31 (1e) Partagez votre performance
2 143 CITERNE Julien LOMME NATATION TRIATHLON 00:16:39 M (2e) Senior (2e) 00:33:55 (3e) 00:00:31 (16e) 01:02:23 (16e) 01:36:48 (6e) 00:00:25 (9e) 00:18:37 (6e) 00:16:39 (2e) 00:17:17 (4e) 00:31:17 (14e) 00:31:06 (15e) 00:16:39 (2e) 00:34:26 (3e) 01:05:42 (6e) 01:37:13 (6e) Partagez votre performance
3 205 GALLET Mathieu TRIATHLON CLUB DE LIEVIN 00:16:39 M (3e) Senior (3e) 00:33:54 (2e) 00:00:27 (7e) 00:58:50 (4e) 01:33:10 (4e) 00:00:24 (5e) 00:17:52 (1e) 00:16:39 (3e) 00:17:16 (3e) 00:29:09 (2e) 00:29:41 (6e) 00:16:39 (3e) 00:34:21 (2e) 01:03:30 (2e) 01:33:34 (4e) Partagez votre performance
4 131 LE DUEY Anthony H.A.C TRIATHLON 00:16:39 M (4e) Veteran (1e) 00:34:27 (5e) 00:00:53 (96e) 00:57:44 (1e) 01:33:03 (2e) 00:00:27 (12e) 00:18:44 (7e) 00:16:39 (4e) 00:17:48 (5e) 00:28:50 (1e) 00:28:55 (1e) 00:16:39 (4e) 00:35:19 (7e) 01:04:09 (4e) 01:33:29 (2e) Partagez votre performance
5 172 JOBBIN Theo ROUEN TRIATHLON 00:16:40 M (5e) Junior (1e) 00:33:55 (4e) 00:01:01 (124e) 01:02:11 (15e) 01:37:06 (8e) 00:00:55 (129e) 00:20:22 (16e) 00:16:40 (5e) 00:17:16 (2e) 00:31:40 (19e) 00:30:31 (9e) 00:16:40 (5e) 00:34:56 (5e) 01:06:36 (7e) 01:38:00 (8e) Partagez votre performance
6 51 BAHEUX Tony TEAM TRIATHLON BAIE DE SOMME 00:16:40 M (6e) Senior (4e) 00:34:28 (6e) 00:00:23 (2e) 00:58:16 (2e) 01:33:06 (3e) 00:00:25 (7e) 00:19:12 (12e) 00:16:40 (6e) 00:17:49 (6e) 00:29:18 (3e) 00:28:59 (2e) 00:16:40 (6e) 00:34:50 (4e) 01:04:07 (3e) 01:33:30 (3e) Partagez votre performance
7 84 DEBIL-CAUX Victor BEAUVAIS TRIATHLON 00:16:40 M (7e) Senior (5e) 00:34:30 (7e) 00:00:27 (8e) 00:59:31 (7e) 01:34:27 (5e) 00:00:22 (2e) 00:18:30 (4e) 00:16:40 (7e) 00:17:50 (7e) 00:29:30 (5e) 00:30:01 (8e) 00:16:40 (7e) 00:34:57 (6e) 01:04:26 (5e) 01:34:48 (5e) Partagez votre performance
8 293 RAMET Benoit 00:16:42 M (8e) Senior (6e) 00:35:00 (8e) 00:00:32 (18e) 01:10:15 (68e) 01:45:45 (26e) 00:00:33 (33e) 00:18:45 (8e) 00:16:42 (8e) 00:18:19 (9e) 00:35:26 (81e) 00:34:49 (63e) 00:16:42 (8e) 00:35:31 (8e) 01:10:57 (13e) 01:46:18 (26e) Partagez votre performance
9 153 BINET Camille POISSY TRIATHLON 00:17:13 M (9e) Senior (7e) 00:35:28 (9e) 00:00:32 (19e) 01:04:40 (26e) 01:40:38 (11e) 00:00:34 (36e) 00:17:59 (3e) 00:17:13 (9e) 00:18:15 (8e) 00:32:32 (29e) 00:32:08 (27e) 00:17:13 (9e) 00:35:59 (9e) 01:08:31 (9e) 01:41:11 (11e) Partagez votre performance
10 170 DUMINY Charles ROUEN TRIATHLON 00:18:04 M (10e) Junior (2e) 00:37:07 (10e) 00:00:28 (10e) 01:08:00 (50e) 01:45:34 (24e) 00:00:29 (22e) 00:18:37 (5e) 00:18:04 (10e) 00:19:04 (11e) 00:34:28 (59e) 00:33:32 (38e) 00:18:04 (10e) 00:37:35 (10e) 01:12:02 (16e) 01:46:02 (24e) Partagez votre performance
11 52 BARITAUX Hadrien TEAM TRIATHLON BAIE DE SOMME 00:18:04 M (11e) Senior (8e) 00:37:07 (11e) 00:00:29 (13e) 00:59:20 (5e) 01:36:56 (7e) 00:00:27 (11e) 00:19:01 (11e) 00:18:04 (11e) 00:19:04 (12e) 00:30:07 (9e) 00:29:14 (4e) 00:18:04 (11e) 00:37:36 (11e) 01:07:43 (8e) 01:37:22 (7e) Partagez votre performance
12 194 KEGET Cedric TOBESPORT 00:18:04 M (12e) Senior (9e) 00:37:08 (12e) 00:00:29 (11e) 01:02:04 (13e) 01:39:40 (9e) 00:00:34 (39e) 00:20:26 (18e) 00:18:04 (12e) 00:19:04 (13e) 00:31:07 (13e) 00:30:58 (12e) 00:18:04 (12e) 00:37:37 (12e) 01:08:43 (10e) 01:40:14 (9e) Partagez votre performance
13 86 DEWANCKELE Matthieu BEAUVAIS TRIATHLON 00:18:05 M (13e) Veteran (2e) 00:37:56 (15e) 00:00:34 (23e) 01:04:56 (30e) 01:43:24 (14e) 00:00:34 (37e) 00:19:58 (15e) 00:18:05 (13e) 00:19:51 (15e) 00:32:51 (36e) 00:32:05 (26e) 00:18:05 (13e) 00:38:29 (14e) 01:11:19 (14e) 01:43:58 (14e) Partagez votre performance
14 215 DESCAMPS Pascal TRIATHLON LITTORAL 59 00:18:15 M (14e) Veteran (3e) 00:37:40 (13e) 00:00:54 (99e) 01:01:27 (10e) 01:40:00 (10e) 00:00:39 (56e) 00:18:58 (10e) 00:18:15 (14e) 00:19:25 (14e) 00:30:57 (12e) 00:30:31 (10e) 00:18:15 (14e) 00:38:33 (15e) 01:09:29 (11e) 01:40:38 (10e) Partagez votre performance
15 225 MARIN Nicolas VALENCIENNES TRIATHLON 00:18:43 M (15e) Senior (10e) 00:37:42 (14e) 00:00:43 (53e) 01:03:30 (21e) 01:41:55 (13e) 00:00:24 (6e) 00:18:57 (9e) 00:18:43 (15e) 00:19:00 (10e) 00:31:54 (23e) 00:31:37 (19e) 00:18:43 (15e) 00:38:25 (13e) 01:10:18 (12e) 01:42:18 (13e) Partagez votre performance
16 179 DEBROUCKE Francois SC ABBEVILLE TRIATHLON NATATION 00:18:50 M (16e) Veteran (4e) 00:39:06 (17e) 00:00:41 (49e) 01:05:08 (31e) 01:44:54 (21e) 00:00:28 (19e) 00:20:47 (20e) 00:18:50 (16e) 00:20:17 (22e) 00:32:50 (35e) 00:32:18 (30e) 00:18:50 (16e) 00:39:47 (18e) 01:12:37 (20e) 01:45:22 (21e) Partagez votre performance
17 73 VERHAEGHE Gael ATHLETIC CLUB MARCQUOIS 00:18:58 M (17e) Junior (3e) 00:39:05 (16e) 00:00:24 (3e) 01:16:41 (157e) 01:56:09 (78e) 00:00:28 (17e) 00:23:43 (74e) 00:18:58 (17e) 00:20:08 (18e) 00:38:01 (158e) 00:38:41 (157e) 00:18:58 (17e) 00:39:28 (16e) 01:17:29 (55e) 01:56:37 (78e) Partagez votre performance
18 126 ROUSSEL Jean luc DRANCY TRIATHLON 00:19:08 M (18e) Veteran (5e) 00:39:38 (19e) 00:01:32 (229e) 01:04:56 (29e) 01:46:05 (28e) 00:00:36 (46e) 00:21:50 (40e) 00:19:08 (18e) 00:20:30 (33e) 00:32:24 (27e) 00:32:32 (31e) 00:19:08 (18e) 00:41:09 (34e) 01:13:33 (25e) 01:46:40 (28e) Partagez votre performance
19 60 KIEFER David AMIENS TRIATHLON 00:19:08 M (19e) Veteran (6e) 00:39:07 (18e) 00:00:30 (14e) 01:12:42 (100e) 01:52:18 (56e) 00:01:28 (212e) 00:20:22 (17e) 00:19:08 (19e) 00:19:59 (16e) 00:36:35 (113e) 00:36:07 (84e) 00:19:08 (19e) 00:39:37 (17e) 01:16:11 (45e) 01:53:45 (59e) Partagez votre performance
20 158 MAGNIEZ Cyril POIX TRIATHLON 00:19:25 M (20e) Senior (11e) 00:39:50 (21e) 00:00:36 (34e) 01:07:40 (45e) 01:48:05 (35e) 00:00:46 (88e) 00:21:07 (27e) 00:19:25 (20e) 00:20:26 (27e) 00:33:37 (44e) 00:34:03 (51e) 00:19:25 (20e) 00:40:26 (19e) 01:14:03 (28e) 01:48:51 (35e) Partagez votre performance
21 124 BASTIER Arnaud DAUPHINS DE SCEAUX & BOURG LA REINE 00:19:25 M (21e) Senior (12e) 00:40:02 (29e) 00:00:48 (72e) 01:12:53 (101e) 01:53:42 (63e) 00:00:39 (58e) 00:20:59 (26e) 00:19:25 (21e) 00:20:38 (39e) 00:36:17 (102e) 00:36:37 (103e) 00:19:25 (21e) 00:40:50 (27e) 01:17:06 (52e) 01:54:21 (64e) Partagez votre performance
22 184 MILAN Francois SC ABBEVILLE TRIATHLON NATATION 00:19:25 M (22e) Senior (13e) 00:39:53 (22e) 00:00:38 (41e) 01:03:45 (22e) 01:44:15 (19e) 00:00:26 (10e) 00:21:58 (46e) 00:19:25 (22e) 00:20:28 (32e) 00:31:43 (20e) 00:32:03 (24e) 00:19:25 (22e) 00:40:31 (20e) 01:12:13 (17e) 01:44:41 (19e) Partagez votre performance
23 292 PARENT Alexis 00:19:26 M (23e) Senior (14e) 00:39:57 (24e) 00:00:47 (66e) 01:13:28 (114e) 01:54:12 (66e) 00:00:41 (63e) 00:28:42 (192e) 00:19:26 (23e) 00:20:32 (35e) 00:36:13 (100e) 00:37:16 (128e) 00:19:26 (23e) 00:40:44 (24e) 01:16:57 (50e) 01:54:53 (65e) Partagez votre performance
24 115 ROUCOUX David CLUB OLYMPIQUE DE LA BRESLE 00:19:26 M (24e) Veteran (7e) 00:40:01 (26e) 00:00:37 (37e) 01:04:01 (23e) 01:44:39 (20e) 00:00:37 (48e) 00:21:26 (32e) 00:19:26 (24e) 00:20:36 (38e) 00:32:08 (24e) 00:31:53 (22e) 00:19:26 (24e) 00:40:38 (21e) 01:12:46 (22e) 01:45:15 (20e) Partagez votre performance
25 13 GAUDRY Delphine H.A.C TRIATHLON 00:19:28 F (1e) Senior (1e) 00:40:02 (28e) 00:00:42 (50e) 01:10:23 (70e) 01:51:05 (50e) 00:00:28 (15e) 00:21:36 (37e) 00:19:28 (25e) 00:20:35 (37e) 00:34:49 (63e) 00:35:34 (75e) 00:19:28 (25e) 00:40:43 (23e) 01:15:32 (42e) 01:51:33 (49e) Partagez votre performance
26 88 EL OUAFI Kamal BEAUVAIS TRIATHLON 00:19:36 M (25e) Senior (15e) 00:39:38 (20e) 00:01:09 (158e) 01:05:42 (36e) 01:46:28 (31e) 00:00:44 (78e) 00:19:41 (13e) 00:19:36 (26e) 00:20:03 (17e) 00:33:29 (42e) 00:32:13 (28e) 00:19:36 (26e) 00:40:47 (26e) 01:14:15 (31e) 01:47:12 (31e) Partagez votre performance
27 71 SAUTREUIL Benoît ASTRE CREILLOIS 00:19:39 M (26e) Senior (16e) 00:40:31 (39e) 00:00:49 (77e) 01:04:40 (27e) 01:45:59 (27e) 00:00:30 (24e) 00:21:15 (29e) 00:19:39 (27e) 00:20:52 (46e) 00:32:42 (32e) 00:31:59 (23e) 00:19:39 (27e) 00:41:19 (37e) 01:14:00 (27e) 01:46:28 (27e) Partagez votre performance
28 68 FABRE Aymeric ASTRE CREILLOIS 00:19:39 M (27e) Senior (17e) 00:40:24 (35e) 00:00:35 (31e) 01:02:38 (17e) 01:43:37 (15e) 00:00:27 (14e) 00:22:13 (51e) 00:19:39 (28e) 00:20:45 (41e) 00:31:34 (17e) 00:31:05 (14e) 00:19:39 (28e) 00:40:59 (31e) 01:12:32 (19e) 01:44:03 (15e) Partagez votre performance
29 101 GAUTIER Richard CHANTILLY TRIATHLON 00:19:39 M (28e) Senior (18e) 00:40:01 (25e) 00:00:45 (60e) 01:13:47 (122e) 01:54:33 (69e) 00:00:32 (30e) 00:21:58 (47e) 00:19:39 (29e) 00:20:22 (23e) 00:37:06 (133e) 00:36:41 (108e) 00:19:39 (29e) 00:40:46 (25e) 01:17:52 (60e) 01:55:04 (69e) Partagez votre performance
30 58 VALLES Morgan A.S. ETAPLES TRIATHLON 00:19:40 M (29e) Senior (19e) 00:40:02 (27e) 00:00:54 (97e) 01:08:07 (54e) 01:49:02 (42e) 00:00:41 (60e) 00:21:26 (33e) 00:19:40 (30e) 00:20:22 (24e) 00:33:37 (43e) 00:34:31 (61e) 00:19:40 (30e) 00:40:55 (30e) 01:14:31 (33e) 01:49:42 (41e) Partagez votre performance
31 53 BERGER Pierre TEAM TRIATHLON BAIE DE SOMME 00:19:40 M (30e) Senior (20e) 00:40:26 (37e) 00:00:49 (78e) 01:02:45 (18e) 01:43:59 (16e) 00:00:28 (18e) 00:22:00 (48e) 00:19:40 (31e) 00:20:47 (42e) 00:31:29 (16e) 00:31:16 (16e) 00:19:40 (31e) 00:41:15 (36e) 01:12:44 (21e) 01:44:27 (16e) Partagez votre performance
32 145 POCHOLLE Thierry LOMME NATATION TRIATHLON 00:19:41 M (31e) Veteran (8e) 00:39:54 (23e) 00:01:09 (162e) 01:07:56 (47e) 01:48:59 (41e) 00:00:34 (38e) 00:21:36 (36e) 00:19:41 (32e) 00:20:13 (21e) 00:34:17 (55e) 00:33:39 (42e) 00:19:41 (32e) 00:41:03 (33e) 01:15:20 (41e) 01:49:33 (40e) Partagez votre performance
33 242 BONNARD Loic ITU USA 00:19:42 M (32e) Senior (21e) 00:40:09 (32e) 00:00:44 (55e) 01:03:21 (19e) 01:44:13 (17e) 00:00:23 (3e) 00:21:47 (39e) 00:19:42 (33e) 00:20:28 (30e) 00:31:34 (18e) 00:31:48 (21e) 00:19:42 (33e) 00:40:52 (28e) 01:12:26 (18e) 01:44:35 (17e)